sensor_id;sensor_type;location;lat;lon;timestamp;temperature;humidity
8888;DHT22;4480;52.370;9.748;2022-09-09T00:00:20;13.70;99.90
8888;DHT22;4480;52.370;9.748;2022-09-09T00:02:55;13.70;99.90
8888;DHT22;4480;52.370;9.748;2022-09-09T00:05:29;13.70;99.90
8888;DHT22;4480;52.370;9.748;2022-09-09T00:07:59;13.70;99.90
8888;DHT22;4480;52.370;9.748;2022-09-09T00:10:30;13.70;99.90
8888;DHT22;4480;52.370;9.748;2022-09-09T00:13:05;13.60;99.90
8888;DHT22;4480;52.370;9.748;2022-09-09T00:15:39;13.60;99.90
8888;DHT22;4480;52.370;9.748;2022-09-09T00:18:14;13.60;99.90
8888;DHT22;4480;52.370;9.748;2022-09-09T00:20:45;13.60;99.90
8888;DHT22;4480;52.370;9.748;2022-09-09T00:23:22;13.60;99.90
8888;DHT22;4480;52.370;9.748;2022-09-09T00:25:57;13.50;99.90
8888;DHT22;4480;52.370;9.748;2022-09-09T00:28:27;13.60;99.90
8888;DHT22;4480;52.370;9.748;2022-09-09T00:30:59;13.50;99.90
8888;DHT22;4480;52.370;9.748;2022-09-09T00:33:30;13.50;99.90
8888;DHT22;4480;52.370;9.748;2022-09-09T00:35:58;13.60;99.90
8888;DHT22;4480;52.370;9.748;2022-09-09T00:38:31;13.60;99.90
8888;DHT22;4480;52.370;9.748;2022-09-09T00:41:03;13.50;99.90
8888;DHT22;4480;52.370;9.748;2022-09-09T00:43:36;13.50;99.90
8888;DHT22;4480;52.370;9.748;2022-09-09T00:46:36;13.50;99.90
8888;DHT22;4480;52.370;9.748;2022-09-09T00:49:15;13.50;99.90
8888;DHT22;4480;52.370;9.748;2022-09-09T00:51:52;13.50;99.90
8888;DHT22;4480;52.370;9.748;2022-09-09T00:54:33;13.50;99.90
8888;DHT22;4480;52.370;9.748;2022-09-09T00:57:13;13.50;99.90
8888;DHT22;4480;52.370;9.748;2022-09-09T00:59:46;13.50;99.90
8888;DHT22;4480;52.370;9.748;2022-09-09T01:02:25;13.40;99.90
8888;DHT22;4480;52.370;9.748;2022-09-09T01:04:53;13.40;99.90
8888;DHT22;4480;52.370;9.748;2022-09-09T01:07:20;13.40;99.90
8888;DHT22;4480;52.370;9.748;2022-09-09T01:09:56;13.40;99.90
8888;DHT22;4480;52.370;9.748;2022-09-09T01:12:30;13.40;99.90
8888;DHT22;4480;52.370;9.748;2022-09-09T01:15:08;13.40;99.90
8888;DHT22;4480;52.370;9.748;2022-09-09T01:17:44;13.40;99.90
8888;DHT22;4480;52.370;9.748;2022-09-09T01:20:14;13.40;99.90
8888;DHT22;4480;52.370;9.748;2022-09-09T01:22:51;13.40;99.90
8888;DHT22;4480;52.370;9.748;2022-09-09T01:25:26;13.40;99.90
8888;DHT22;4480;52.370;9.748;2022-09-09T01:27:58;13.40;99.90
8888;DHT22;4480;52.370;9.748;2022-09-09T01:30:26;13.40;99.90
8888;DHT22;4480;52.370;9.748;2022-09-09T01:32:55;13.40;99.90
8888;DHT22;4480;52.370;9.748;2022-09-09T01:35:32;13.40;99.90
8888;DHT22;4480;52.370;9.748;2022-09-09T01:38:01;13.40;99.90
8888;DHT22;4480;52.370;9.748;2022-09-09T01:40:28;13.50;99.90
8888;DHT22;4480;52.370;9.748;2022-09-09T01:42:56;13.50;99.90
8888;DHT22;4480;52.370;9.748;2022-09-09T01:45:24;13.50;99.90
8888;DHT22;4480;52.370;9.748;2022-09-09T01:47:52;13.50;99.90
8888;DHT22;4480;52.370;9.748;2022-09-09T01:50:19;13.50;99.90
8888;DHT22;4480;52.370;9.748;2022-09-09T01:52:48;13.50;99.90
8888;DHT22;4480;52.370;9.748;2022-09-09T01:55:16;13.40;99.90
8888;DHT22;4480;52.370;9.748;2022-09-09T01:57:52;13.40;99.90
8888;DHT22;4480;52.370;9.748;2022-09-09T02:00:24;13.40;99.90
8888;DHT22;4480;52.370;9.748;2022-09-09T02:02:57;13.40;99.90
8888;DHT22;4480;52.370;9.748;2022-09-09T02:05:32;13.40;99.90
8888;DHT22;4480;52.370;9.748;2022-09-09T02:08:06;13.30;99.90
8888;DHT22;4480;52.370;9.748;2022-09-09T02:10:39;13.30;99.90
8888;DHT22;4480;52.370;9.748;2022-09-09T02:13:10;13.30;99.90
8888;DHT22;4480;52.370;9.748;2022-09-09T02:15:44;13.30;99.90
8888;DHT22;4480;52.370;9.748;2022-09-09T02:18:13;13.30;99.90
8888;DHT22;4480;52.370;9.748;2022-09-09T02:20:43;13.40;99.90
8888;DHT22;4480;52.370;9.748;2022-09-09T02:23:12;13.40;99.90
8888;DHT22;4480;52.370;9.748;2022-09-09T02:25:41;13.40;99.90
8888;DHT22;4480;52.370;9.748;2022-09-09T02:28:10;13.40;99.90
8888;DHT22;4480;52.370;9.748;2022-09-09T02:30:41;13.40;99.90
8888;DHT22;4480;52.370;9.748;2022-09-09T02:33:09;13.40;99.90
8888;DHT22;4480;52.370;9.748;2022-09-09T02:35:38;13.40;99.90
8888;DHT22;4480;52.370;9.748;2022-09-09T02:38:10;13.40;99.90
8888;DHT22;4480;52.370;9.748;2022-09-09T02:40:38;13.40;99.90
8888;DHT22;4480;52.370;9.748;2022-09-09T02:43:05;13.50;99.90
8888;DHT22;4480;52.370;9.748;2022-09-09T02:45:36;13.50;99.90
8888;DHT22;4480;52.370;9.748;2022-09-09T02:48:14;13.50;99.90
8888;DHT22;4480;52.370;9.748;2022-09-09T02:50:47;13.50;99.90
8888;DHT22;4480;52.370;9.748;2022-09-09T02:53:18;13.60;99.90
8888;DHT22;4480;52.370;9.748;2022-09-09T02:55:47;13.60;99.90
8888;DHT22;4480;52.370;9.748;2022-09-09T02:58:16;13.60;99.90
8888;DHT22;4480;52.370;9.748;2022-09-09T03:00:44;13.60;99.90
8888;DHT22;4480;52.370;9.748;2022-09-09T03:03:14;13.70;99.90
8888;DHT22;4480;52.370;9.748;2022-09-09T03:05:41;13.70;99.90
8888;DHT22;4480;52.370;9.748;2022-09-09T03:08:08;13.70;99.90
8888;DHT22;4480;52.370;9.748;2022-09-09T03:10:35;13.70;99.90
8888;DHT22;4480;52.370;9.748;2022-09-09T03:13:03;13.80;99.90
8888;DHT22;4480;52.370;9.748;2022-09-09T03:15:31;13.80;99.90
8888;DHT22;4480;52.370;9.748;2022-09-09T03:17:58;13.80;99.90
8888;DHT22;4480;52.370;9.748;2022-09-09T03:20:27;13.90;99.90
8888;DHT22;4480;52.370;9.748;2022-09-09T03:22:54;13.90;99.90
8888;DHT22;4480;52.370;9.748;2022-09-09T03:25:22;14.00;99.90
8888;DHT22;4480;52.370;9.748;2022-09-09T03:27:50;14.00;99.90
8888;DHT22;4480;52.370;9.748;2022-09-09T03:30:19;14.00;99.90
8888;DHT22;4480;52.370;9.748;2022-09-09T03:32:46;14.00;99.90
8888;DHT22;4480;52.370;9.748;2022-09-09T03:35:13;14.10;99.90
8888;DHT22;4480;52.370;9.748;2022-09-09T03:37:42;14.10;99.90
8888;DHT22;4480;52.370;9.748;2022-09-09T03:40:10;14.10;99.90
8888;DHT22;4480;52.370;9.748;2022-09-09T03:42:37;14.10;99.90
8888;DHT22;4480;52.370;9.748;2022-09-09T03:45:06;14.10;99.90
8888;DHT22;4480;52.370;9.748;2022-09-09T03:47:34;14.10;99.90
8888;DHT22;4480;52.370;9.748;2022-09-09T03:50:01;14.10;99.90
8888;DHT22;4480;52.370;9.748;2022-09-09T03:52:29;14.10;99.90
8888;DHT22;4480;52.370;9.748;2022-09-09T03:54:57;14.10;99.90
8888;DHT22;4480;52.370;9.748;2022-09-09T03:57:24;14.10;99.90
8888;DHT22;4480;52.370;9.748;2022-09-09T03:59:51;14.20;99.90
8888;DHT22;4480;52.370;9.748;2022-09-09T04:02:18;14.20;99.90
8888;DHT22;4480;52.370;9.748;2022-09-09T04:04:44;14.20;99.90
8888;DHT22;4480;52.370;9.748;2022-09-09T04:10:11;14.30;99.90
8888;DHT22;4480;52.370;9.748;2022-09-09T04:12:38;14.30;99.90
8888;DHT22;4480;52.370;9.748;2022-09-09T04:15:06;14.30;99.90
8888;DHT22;4480;52.370;9.748;2022-09-09T04:17:33;14.20;99.90
8888;DHT22;4480;52.370;9.748;2022-09-09T04:20:02;14.30;99.90
8888;DHT22;4480;52.370;9.748;2022-09-09T04:22:29;14.30;99.90
8888;DHT22;4480;52.370;9.748;2022-09-09T04:24:55;14.30;99.90
8888;DHT22;4480;52.370;9.748;2022-09-09T04:27:23;14.30;99.90
8888;DHT22;4480;52.370;9.748;2022-09-09T04:29:50;14.30;99.90
8888;DHT22;4480;52.370;9.748;2022-09-09T04:32:17;14.30;99.90
8888;DHT22;4480;52.370;9.748;2022-09-09T04:34:44;14.40;99.90
8888;DHT22;4480;52.370;9.748;2022-09-09T04:37:13;14.30;99.90
8888;DHT22;4480;52.370;9.748;2022-09-09T04:39:40;14.40;99.90
8888;DHT22;4480;52.370;9.748;2022-09-09T04:42:06;14.40;99.90
8888;DHT22;4480;52.370;9.748;2022-09-09T04:44:35;14.40;99.90
8888;DHT22;4480;52.370;9.748;2022-09-09T04:47:02;14.40;99.90
8888;DHT22;4480;52.370;9.748;2022-09-09T04:49:28;14.50;99.90
8888;DHT22;4480;52.370;9.748;2022-09-09T04:51:57;14.50;99.90
8888;DHT22;4480;52.370;9.748;2022-09-09T04:54:23;14.50;99.90
8888;DHT22;4480;52.370;9.748;2022-09-09T04:56:51;14.50;99.90
8888;DHT22;4480;52.370;9.748;2022-09-09T04:59:17;14.60;99.90
8888;DHT22;4480;52.370;9.748;2022-09-09T05:01:45;14.60;99.90
8888;DHT22;4480;52.370;9.748;2022-09-09T05:04:12;14.60;99.90
8888;DHT22;4480;52.370;9.748;2022-09-09T05:06:40;14.70;99.90
8888;DHT22;4480;52.370;9.748;2022-09-09T05:09:07;14.70;99.90
8888;DHT22;4480;52.370;9.748;2022-09-09T05:11:34;14.70;99.90
8888;DHT22;4480;52.370;9.748;2022-09-09T05:14:02;14.70;99.90
8888;DHT22;4480;52.370;9.748;2022-09-09T05:16:29;14.80;99.90
8888;DHT22;4480;52.370;9.748;2022-09-09T05:18:57;14.80;99.90
8888;DHT22;4480;52.370;9.748;2022-09-09T05:21:24;14.80;99.90
8888;DHT22;4480;52.370;9.748;2022-09-09T05:23:53;14.90;99.90
8888;DHT22;4480;52.370;9.748;2022-09-09T05:26:21;14.90;99.90
8888;DHT22;4480;52.370;9.748;2022-09-09T05:28:49;14.90;99.90
8888;DHT22;4480;52.370;9.748;2022-09-09T05:31:17;14.90;99.90
8888;DHT22;4480;52.370;9.748;2022-09-09T05:33:46;15.00;99.90
8888;DHT22;4480;52.370;9.748;2022-09-09T05:36:16;15.00;99.90
8888;DHT22;4480;52.370;9.748;2022-09-09T05:38:43;15.00;99.90
8888;DHT22;4480;52.370;9.748;2022-09-09T05:41:12;15.10;99.90
8888;DHT22;4480;52.370;9.748;2022-09-09T05:43:41;15.10;99.90
8888;DHT22;4480;52.370;9.748;2022-09-09T05:46:11;15.10;99.90
8888;DHT22;4480;52.370;9.748;2022-09-09T05:48:40;15.10;99.90
8888;DHT22;4480;52.370;9.748;2022-09-09T05:51:09;15.20;99.90
8888;DHT22;4480;52.370;9.748;2022-09-09T05:53:39;15.20;99.90
8888;DHT22;4480;52.370;9.748;2022-09-09T05:56:07;15.20;99.90
8888;DHT22;4480;52.370;9.748;2022-09-09T05:58:36;15.20;99.90
8888;DHT22;4480;52.370;9.748;2022-09-09T06:01:04;15.20;99.90
8888;DHT22;4480;52.370;9.748;2022-09-09T06:03:32;15.30;99.90
8888;DHT22;4480;52.370;9.748;2022-09-09T06:06:00;15.40;99.90
8888;DHT22;4480;52.370;9.748;2022-09-09T06:08:27;15.40;99.90
8888;DHT22;4480;52.370;9.748;2022-09-09T06:11:01;15.50;99.90
8888;DHT22;4480;52.370;9.748;2022-09-09T06:13:29;15.50;99.90
8888;DHT22;4480;52.370;9.748;2022-09-09T06:15:57;15.60;99.90
8888;DHT22;4480;52.370;9.748;2022-09-09T06:18:24;15.60;99.90
8888;DHT22;4480;52.370;9.748;2022-09-09T06:20:59;15.70;99.90
8888;DHT22;4480;52.370;9.748;2022-09-09T06:23:26;15.70;99.90
8888;DHT22;4480;52.370;9.748;2022-09-09T06:26:02;15.70;99.90
8888;DHT22;4480;52.370;9.748;2022-09-09T06:28:31;15.70;99.90
8888;DHT22;4480;52.370;9.748;2022-09-09T06:30:58;15.80;99.90
8888;DHT22;4480;52.370;9.748;2022-09-09T06:33:25;15.90;99.90
8888;DHT22;4480;52.370;9.748;2022-09-09T06:35:55;16.00;99.90
8888;DHT22;4480;52.370;9.748;2022-09-09T06:38:22;16.00;99.90
8888;DHT22;4480;52.370;9.748;2022-09-09T06:40:51;16.10;99.90
8888;DHT22;4480;52.370;9.748;2022-09-09T06:43:21;16.20;99.90
8888;DHT22;4480;52.370;9.748;2022-09-09T06:45:55;16.20;99.90
8888;DHT22;4480;52.370;9.748;2022-09-09T06:48:22;16.30;99.90
8888;DHT22;4480;52.370;9.748;2022-09-09T06:51:06;16.40;99.90
8888;DHT22;4480;52.370;9.748;2022-09-09T06:53:44;16.40;99.90
8888;DHT22;4480;52.370;9.748;2022-09-09T06:56:20;16.60;99.90
8888;DHT22;4480;52.370;9.748;2022-09-09T06:58:49;16.70;99.90
8888;DHT22;4480;52.370;9.748;2022-09-09T07:01:18;16.90;99.90
8888;DHT22;4480;52.370;9.748;2022-09-09T07:03:47;17.20;99.90
8888;DHT22;4480;52.370;9.748;2022-09-09T07:06:17;17.40;99.90
8888;DHT22;4480;52.370;9.748;2022-09-09T07:08:47;17.60;99.90
8888;DHT22;4480;52.370;9.748;2022-09-09T07:11:14;17.80;99.90
8888;DHT22;4480;52.370;9.748;2022-09-09T07:13:41;18.00;99.90
8888;DHT22;4480;52.370;9.748;2022-09-09T07:16:11;18.10;99.90
8888;DHT22;4480;52.370;9.748;2022-09-09T07:18:39;18.30;99.90
8888;DHT22;4480;52.370;9.748;2022-09-09T07:21:05;18.40;99.90
8888;DHT22;4480;52.370;9.748;2022-09-09T07:23:34;18.50;99.90
8888;DHT22;4480;52.370;9.748;2022-09-09T07:26:01;18.70;99.90
8888;DHT22;4480;52.370;9.748;2022-09-09T07:28:28;18.80;99.90
8888;DHT22;4480;52.370;9.748;2022-09-09T07:30:57;18.80;99.90
8888;DHT22;4480;52.370;9.748;2022-09-09T07:33:25;18.90;99.90
8888;DHT22;4480;52.370;9.748;2022-09-09T07:35:53;19.00;99.90
8888;DHT22;4480;52.370;9.748;2022-09-09T07:38:20;19.00;99.90
8888;DHT22;4480;52.370;9.748;2022-09-09T07:40:48;19.10;99.90
8888;DHT22;4480;52.370;9.748;2022-09-09T07:43:15;19.10;99.90
8888;DHT22;4480;52.370;9.748;2022-09-09T07:45:42;19.00;99.90
8888;DHT22;4480;52.370;9.748;2022-09-09T07:48:09;19.00;99.90
8888;DHT22;4480;52.370;9.748;2022-09-09T07:50:37;19.00;99.90
8888;DHT22;4480;52.370;9.748;2022-09-09T07:53:05;19.00;99.90
8888;DHT22;4480;52.370;9.748;2022-09-09T07:55:31;19.10;99.90
8888;DHT22;4480;52.370;9.748;2022-09-09T07:57:58;19.10;99.90
8888;DHT22;4480;52.370;9.748;2022-09-09T08:00:25;19.20;99.90
8888;DHT22;4480;52.370;9.748;2022-09-09T08:02:53;19.30;99.90
8888;DHT22;4480;52.370;9.748;2022-09-09T08:05:20;19.30;99.90
8888;DHT22;4480;52.370;9.748;2022-09-09T08:07:49;19.50;99.90
8888;DHT22;4480;52.370;9.748;2022-09-09T08:10:16;19.60;99.90
8888;DHT22;4480;52.370;9.748;2022-09-09T08:12:43;19.70;99.90
8888;DHT22;4480;52.370;9.748;2022-09-09T08:15:11;19.90;99.90
8888;DHT22;4480;52.370;9.748;2022-09-09T08:20:08;20.50;99.90
8888;DHT22;4480;52.370;9.748;2022-09-09T08:22:35;20.70;99.90
8888;DHT22;4480;52.370;9.748;2022-09-09T08:25:05;20.90;99.90
8888;DHT22;4480;52.370;9.748;2022-09-09T08:27:34;21.00;99.90
8888;DHT22;4480;52.370;9.748;2022-09-09T08:30:00;21.10;99.90
8888;DHT22;4480;52.370;9.748;2022-09-09T08:32:27;21.10;99.90
8888;DHT22;4480;52.370;9.748;2022-09-09T08:34:54;21.10;99.90
8888;DHT22;4480;52.370;9.748;2022-09-09T08:37:21;21.00;99.90
8888;DHT22;4480;52.370;9.748;2022-09-09T08:39:48;20.90;99.90
8888;DHT22;4480;52.370;9.748;2022-09-09T08:42:31;20.70;99.90
8888;DHT22;4480;52.370;9.748;2022-09-09T08:45:19;20.70;99.90
8888;DHT22;4480;52.370;9.748;2022-09-09T08:47:57;20.80;99.90
8888;DHT22;4480;52.370;9.748;2022-09-09T08:50:30;20.80;99.90
8888;DHT22;4480;52.370;9.748;2022-09-09T08:53:02;20.80;99.90
8888;DHT22;4480;52.370;9.748;2022-09-09T08:55:38;20.70;99.50
8888;DHT22;4480;52.370;9.748;2022-09-09T08:58:13;20.80;99.40
8888;DHT22;4480;52.370;9.748;2022-09-09T09:00:50;20.80;98.90
8888;DHT22;4480;52.370;9.748;2022-09-09T09:03:24;20.90;98.50
8888;DHT22;4480;52.370;9.748;2022-09-09T09:06:01;21.00;98.10
8888;DHT22;4480;52.370;9.748;2022-09-09T09:08:36;21.10;97.70
8888;DHT22;4480;52.370;9.748;2022-09-09T09:11:06;21.20;97.00
8888;DHT22;4480;52.370;9.748;2022-09-09T09:13:40;21.30;96.50
8888;DHT22;4480;52.370;9.748;2022-09-09T09:16:15;21.40;95.90
8888;DHT22;4480;52.370;9.748;2022-09-09T09:18:44;21.40;95.50
8888;DHT22;4480;52.370;9.748;2022-09-09T09:21:15;21.50;95.00
8888;DHT22;4480;52.370;9.748;2022-09-09T09:23:50;21.60;94.60
8888;DHT22;4480;52.370;9.748;2022-09-09T09:26:22;21.60;93.80
8888;DHT22;4480;52.370;9.748;2022-09-09T09:28:55;21.70;93.60
8888;DHT22;4480;52.370;9.748;2022-09-09T09:31:23;21.70;93.00
8888;DHT22;4480;52.370;9.748;2022-09-09T09:33:52;21.70;92.70
8888;DHT22;4480;52.370;9.748;2022-09-09T09:36:20;21.80;92.10
8888;DHT22;4480;52.370;9.748;2022-09-09T09:38:55;21.90;91.70
8888;DHT22;4480;52.370;9.748;2022-09-09T09:41:32;22.10;91.10
8888;DHT22;4480;52.370;9.748;2022-09-09T09:44:03;22.40;90.50
8888;DHT22;4480;52.370;9.748;2022-09-09T09:46:31;22.60;89.40
8888;DHT22;4480;52.370;9.748;2022-09-09T09:48:59;22.80;88.10
8888;DHT22;4480;52.370;9.748;2022-09-09T09:51:27;23.00;87.20
8888;DHT22;4480;52.370;9.748;2022-09-09T09:54:08;23.20;85.80
8888;DHT22;4480;52.370;9.748;2022-09-09T09:56:36;23.20;84.40
8888;DHT22;4480;52.370;9.748;2022-09-09T09:59:04;23.40;83.50
8888;DHT22;4480;52.370;9.748;2022-09-09T10:01:32;23.50;82.30
8888;DHT22;4480;52.370;9.748;2022-09-09T10:04:02;23.60;81.70
8888;DHT22;4480;52.370;9.748;2022-09-09T10:06:33;23.70;80.70
8888;DHT22;4480;52.370;9.748;2022-09-09T10:09:01;23.90;79.10
8888;DHT22;4480;52.370;9.748;2022-09-09T10:11:41;23.80;78.00
8888;DHT22;4480;52.370;9.748;2022-09-09T10:14:19;23.50;77.50
8888;DHT22;4480;52.370;9.748;2022-09-09T10:16:58;23.30;78.70
8888;DHT22;4480;52.370;9.748;2022-09-09T10:19:31;23.10;78.10
8888;DHT22;4480;52.370;9.748;2022-09-09T10:22:05;22.80;78.40
8888;DHT22;4480;52.370;9.748;2022-09-09T10:25:05;22.60;78.80
8888;DHT22;4480;52.370;9.748;2022-09-09T10:27:45;22.40;79.20
8888;DHT22;4480;52.370;9.748;2022-09-09T10:30:18;22.40;79.40
8888;DHT22;4480;52.370;9.748;2022-09-09T10:32:48;22.40;79.30
8888;DHT22;4480;52.370;9.748;2022-09-09T10:35:27;22.20;79.50
8888;DHT22;4480;52.370;9.748;2022-09-09T10:38:09;22.10;79.80
8888;DHT22;4480;52.370;9.748;2022-09-09T10:40:39;22.00;80.30
8888;DHT22;4480;52.370;9.748;2022-09-09T10:43:14;21.90;80.60
8888;DHT22;4480;52.370;9.748;2022-09-09T10:45:52;21.80;80.80
8888;DHT22;4480;52.370;9.748;2022-09-09T10:48:31;21.70;81.40
8888;DHT22;4480;52.370;9.748;2022-09-09T10:51:13;21.70;81.70
8888;DHT22;4480;52.370;9.748;2022-09-09T10:53:49;21.70;81.70
8888;DHT22;4480;52.370;9.748;2022-09-09T10:56:21;21.60;81.70
8888;DHT22;4480;52.370;9.748;2022-09-09T10:58:53;21.50;82.20
8888;DHT22;4480;52.370;9.748;2022-09-09T11:01:25;21.40;82.50
8888;DHT22;4480;52.370;9.748;2022-09-09T11:03:59;21.40;82.50
8888;DHT22;4480;52.370;9.748;2022-09-09T11:06:34;21.40;83.00
8888;DHT22;4480;52.370;9.748;2022-09-09T11:09:03;21.50;83.50
8888;DHT22;4480;52.370;9.748;2022-09-09T11:11:36;21.50;83.90
8888;DHT22;4480;52.370;9.748;2022-09-09T11:14:08;21.40;84.70
8888;DHT22;4480;52.370;9.748;2022-09-09T11:16:43;21.20;85.90
8888;DHT22;4480;52.370;9.748;2022-09-09T11:19:18;21.00;87.60
8888;DHT22;4480;52.370;9.748;2022-09-09T11:21:48;20.80;89.50
8888;DHT22;4480;52.370;9.748;2022-09-09T11:24:21;20.70;90.40
8888;DHT22;4480;52.370;9.748;2022-09-09T11:26:52;20.60;91.30
8888;DHT22;4480;52.370;9.748;2022-09-09T11:32:47;20.20;93.50
8888;DHT22;4480;52.370;9.748;2022-09-09T11:35:39;19.90;95.30
8888;DHT22;4480;52.370;9.748;2022-09-09T11:38:21;19.70;97.30
8888;DHT22;4480;52.370;9.748;2022-09-09T11:40:56;19.40;98.90
8888;DHT22;4480;52.370;9.748;2022-09-09T11:43:28;19.10;99.80
8888;DHT22;4480;52.370;9.748;2022-09-09T11:45:59;18.80;99.90
8888;DHT22;4480;52.370;9.748;2022-09-09T11:48:32;18.50;99.90
8888;DHT22;4480;52.370;9.748;2022-09-09T11:51:03;18.10;99.90
8888;DHT22;4480;52.370;9.748;2022-09-09T11:53:31;17.70;99.90
8888;DHT22;4480;52.370;9.748;2022-09-09T11:56:03;17.40;99.90
8888;DHT22;4480;52.370;9.748;2022-09-09T11:58:36;17.20;99.90
8888;DHT22;4480;52.370;9.748;2022-09-09T12:01:14;17.00;99.90
8888;DHT22;4480;52.370;9.748;2022-09-09T12:03:45;16.90;99.90
8888;DHT22;4480;52.370;9.748;2022-09-09T12:06:18;16.80;99.90
8888;DHT22;4480;52.370;9.748;2022-09-09T12:08:50;16.70;99.90
8888;DHT22;4480;52.370;9.748;2022-09-09T12:11:25;16.70;99.90
8888;DHT22;4480;52.370;9.748;2022-09-09T12:13:53;16.70;99.90
8888;DHT22;4480;52.370;9.748;2022-09-09T12:16:29;16.80;99.90
8888;DHT22;4480;52.370;9.748;2022-09-09T12:19:15;16.80;99.90
8888;DHT22;4480;52.370;9.748;2022-09-09T12:21:49;16.90;99.90
8888;DHT22;4480;52.370;9.748;2022-09-09T12:24:23;17.00;99.90
8888;DHT22;4480;52.370;9.748;2022-09-09T12:26:58;17.30;99.90
8888;DHT22;4480;52.370;9.748;2022-09-09T12:29:31;17.60;99.90
8888;DHT22;4480;52.370;9.748;2022-09-09T12:32:07;18.10;99.90
8888;DHT22;4480;52.370;9.748;2022-09-09T12:34:39;18.50;99.90
8888;DHT22;4480;52.370;9.748;2022-09-09T12:37:16;18.80;99.90
8888;DHT22;4480;52.370;9.748;2022-09-09T12:39:47;19.30;99.90
8888;DHT22;4480;52.370;9.748;2022-09-09T12:42:17;19.80;99.90
8888;DHT22;4480;52.370;9.748;2022-09-09T12:44:54;20.30;99.90
8888;DHT22;4480;52.370;9.748;2022-09-09T12:47:25;20.80;99.90
8888;DHT22;4480;52.370;9.748;2022-09-09T12:49:55;21.10;99.90
8888;DHT22;4480;52.370;9.748;2022-09-09T12:52:26;21.40;99.20
8888;DHT22;4480;52.370;9.748;2022-09-09T12:54:57;21.60;98.30
8888;DHT22;4480;52.370;9.748;2022-09-09T12:57:26;21.80;97.10
8888;DHT22;4480;52.370;9.748;2022-09-09T13:00:05;21.80;96.10
8888;DHT22;4480;52.370;9.748;2022-09-09T13:02:33;21.80;95.50
8888;DHT22;4480;52.370;9.748;2022-09-09T13:05:14;21.60;95.20
8888;DHT22;4480;52.370;9.748;2022-09-09T13:07:42;21.50;95.40
8888;DHT22;4480;52.370;9.748;2022-09-09T13:10:11;21.60;95.70
8888;DHT22;4480;52.370;9.748;2022-09-09T13:12:39;21.70;95.60
8888;DHT22;4480;52.370;9.748;2022-09-09T13:15:20;21.80;95.40
8888;DHT22;4480;52.370;9.748;2022-09-09T13:17:56;21.70;95.20
8888;DHT22;4480;52.370;9.748;2022-09-09T13:20:25;21.60;95.10
8888;DHT22;4480;52.370;9.748;2022-09-09T13:22:53;21.60;95.30
8888;DHT22;4480;52.370;9.748;2022-09-09T13:25:23;21.50;95.30
8888;DHT22;4480;52.370;9.748;2022-09-09T13:27:56;21.40;95.40
8888;DHT22;4480;52.370;9.748;2022-09-09T13:30:26;21.20;95.50
8888;DHT22;4480;52.370;9.748;2022-09-09T13:33:05;21.10;95.60
8888;DHT22;4480;52.370;9.748;2022-09-09T13:35:33;20.90;95.80
8888;DHT22;4480;52.370;9.748;2022-09-09T13:38:07;20.70;96.20
8888;DHT22;4480;52.370;9.748;2022-09-09T13:40:35;20.60;96.40
8888;DHT22;4480;52.370;9.748;2022-09-09T13:43:02;20.40;96.70
8888;DHT22;4480;52.370;9.748;2022-09-09T13:45:31;20.40;97.00
8888;DHT22;4480;52.370;9.748;2022-09-09T13:48:09;20.30;97.20
8888;DHT22;4480;52.370;9.748;2022-09-09T13:50:37;20.20;97.20
8888;DHT22;4480;52.370;9.748;2022-09-09T13:53:04;20.10;97.40
8888;DHT22;4480;52.370;9.748;2022-09-09T13:55:31;20.00;97.60
8888;DHT22;4480;52.370;9.748;2022-09-09T13:57:59;19.90;97.90
8888;DHT22;4480;52.370;9.748;2022-09-09T14:00:30;19.90;98.30
8888;DHT22;4480;52.370;9.748;2022-09-09T14:02:57;19.90;98.60
8888;DHT22;4480;52.370;9.748;2022-09-09T14:05:25;19.90;98.70
8888;DHT22;4480;52.370;9.748;2022-09-09T14:07:54;19.80;98.70
8888;DHT22;4480;52.370;9.748;2022-09-09T14:10:21;19.90;98.90
8888;DHT22;4480;52.370;9.748;2022-09-09T14:12:48;19.90;98.90
8888;DHT22;4480;52.370;9.748;2022-09-09T14:15:14;20.00;99.20
8888;DHT22;4480;52.370;9.748;2022-09-09T14:17:41;20.20;98.70
8888;DHT22;4480;52.370;9.748;2022-09-09T14:20:09;20.30;98.40
8888;DHT22;4480;52.370;9.748;2022-09-09T14:22:37;20.50;97.90
8888;DHT22;4480;52.370;9.748;2022-09-09T14:25:07;20.60;97.20
8888;DHT22;4480;52.370;9.748;2022-09-09T14:27:34;20.80;96.60
8888;DHT22;4480;52.370;9.748;2022-09-09T14:30:02;21.00;95.90
8888;DHT22;4480;52.370;9.748;2022-09-09T14:32:29;21.10;95.20
8888;DHT22;4480;52.370;9.748;2022-09-09T14:34:57;21.10;94.70
8888;DHT22;4480;52.370;9.748;2022-09-09T14:37:23;21.10;93.80
8888;DHT22;4480;52.370;9.748;2022-09-09T14:39:51;21.20;93.50
8888;DHT22;4480;52.370;9.748;2022-09-09T14:42:23;21.30;93.10
8888;DHT22;4480;52.370;9.748;2022-09-09T14:44:50;21.40;92.70
8888;DHT22;4480;52.370;9.748;2022-09-09T14:47:17;21.60;92.20
8888;DHT22;4480;52.370;9.748;2022-09-09T14:49:44;21.80;91.30
8888;DHT22;4480;52.370;9.748;2022-09-09T14:52:11;22.00;90.50
8888;DHT22;4480;52.370;9.748;2022-09-09T14:54:38;22.20;89.00
8888;DHT22;4480;52.370;9.748;2022-09-09T14:57:05;22.30;87.10
8888;DHT22;4480;52.370;9.748;2022-09-09T14:59:33;22.30;85.60
8888;DHT22;4480;52.370;9.748;2022-09-09T15:02:00;22.30;84.40
8888;DHT22;4480;52.370;9.748;2022-09-09T15:04:29;22.20;83.90
8888;DHT22;4480;52.370;9.748;2022-09-09T15:06:56;22.20;83.50
8888;DHT22;4480;52.370;9.748;2022-09-09T15:09:23;22.20;83.00
8888;DHT22;4480;52.370;9.748;2022-09-09T15:11:50;22.10;82.60
8888;DHT22;4480;52.370;9.748;2022-09-09T15:14:17;22.00;82.70
8888;DHT22;4480;52.370;9.748;2022-09-09T15:16:45;21.90;82.80
8888;DHT22;4480;52.370;9.748;2022-09-09T15:19:12;21.70;83.10
8888;DHT22;4480;52.370;9.748;2022-09-09T15:21:39;21.70;83.40
8888;DHT22;4480;52.370;9.748;2022-09-09T15:24:06;21.70;83.50
8888;DHT22;4480;52.370;9.748;2022-09-09T15:26:37;21.60;83.60
8888;DHT22;4480;52.370;9.748;2022-09-09T15:29:05;21.50;84.10
8888;DHT22;4480;52.370;9.748;2022-09-09T15:31:33;21.40;84.90
8888;DHT22;4480;52.370;9.748;2022-09-09T15:34:02;21.30;85.80
8888;DHT22;4480;52.370;9.748;2022-09-09T15:36:34;21.20;86.40
8888;DHT22;4480;52.370;9.748;2022-09-09T15:39:03;21.10;87.00
8888;DHT22;4480;52.370;9.748;2022-09-09T15:41:30;21.20;87.30
8888;DHT22;4480;52.370;9.748;2022-09-09T15:43:58;21.20;87.30
8888;DHT22;4480;52.370;9.748;2022-09-09T15:46:29;21.10;87.20
8888;DHT22;4480;52.370;9.748;2022-09-09T15:48:58;21.10;87.40
8888;DHT22;4480;52.370;9.748;2022-09-09T15:51:30;21.20;87.70
8888;DHT22;4480;52.370;9.748;2022-09-09T15:53:58;21.10;88.10
8888;DHT22;4480;52.370;9.748;2022-09-09T15:56:26;21.10;87.60
8888;DHT22;4480;52.370;9.748;2022-09-09T15:58:55;21.10;87.80
8888;DHT22;4480;52.370;9.748;2022-09-09T16:01:23;21.10;88.10
8888;DHT22;4480;52.370;9.748;2022-09-09T16:03:50;21.10;88.50
8888;DHT22;4480;52.370;9.748;2022-09-09T16:06:19;21.10;88.80
8888;DHT22;4480;52.370;9.748;2022-09-09T16:08:49;21.10;88.70
8888;DHT22;4480;52.370;9.748;2022-09-09T16:11:18;21.20;88.60
8888;DHT22;4480;52.370;9.748;2022-09-09T16:13:46;21.20;88.20
8888;DHT22;4480;52.370;9.748;2022-09-09T16:16:16;21.20;88.20
8888;DHT22;4480;52.370;9.748;2022-09-09T16:18:46;21.30;88.40
8888;DHT22;4480;52.370;9.748;2022-09-09T16:21:15;21.30;88.60
8888;DHT22;4480;52.370;9.748;2022-09-09T16:23:42;21.30;88.70
8888;DHT22;4480;52.370;9.748;2022-09-09T16:26:13;21.30;88.80
8888;DHT22;4480;52.370;9.748;2022-09-09T16:28:40;21.30;89.00
8888;DHT22;4480;52.370;9.748;2022-09-09T16:31:08;21.20;89.40